createdAt,value
2023-01-30T00:01:26.057Z,-3.04
2023-01-30T00:03:53.225Z,-3.05
2023-01-30T00:06:20.485Z,-3.01
2023-01-30T00:08:47.625Z,-2.99
2023-01-30T00:11:16.617Z,-2.95
2023-01-30T00:13:43.966Z,-2.94
2023-01-30T00:16:11.295Z,-2.89
2023-01-30T00:18:39.751Z,-2.86
2023-01-30T00:21:09.206Z,-2.83
2023-01-30T00:23:36.753Z,-2.77
2023-01-30T00:26:04.815Z,-2.75
2023-01-30T00:28:32.023Z,-2.76
2023-01-30T00:30:59.336Z,-2.74
2023-01-30T00:33:26.966Z,-2.73
2023-01-30T00:35:55.595Z,-2.69
2023-01-30T00:38:23.077Z,-2.68
2023-01-30T00:40:50.501Z,-2.71
2023-01-30T00:43:38.120Z,-2.68
2023-01-30T00:46:31.404Z,-2.65
2023-01-30T00:48:58.445Z,-2.65
2023-01-30T00:51:25.484Z,-2.63
2023-01-30T00:53:52.535Z,-2.63
2023-01-30T00:56:19.746Z,-2.60
2023-01-30T00:58:46.855Z,-2.59
2023-01-30T01:01:14.005Z,-2.56
2023-01-30T01:03:41.070Z,-2.58
2023-01-30T01:06:08.323Z,-2.55
2023-01-30T01:08:35.723Z,-2.52
2023-01-30T01:11:03.329Z,-2.49
2023-01-30T01:13:30.954Z,-2.48
2023-01-30T01:15:58.264Z,-2.48
2023-01-30T01:18:25.636Z,-2.48
2023-01-30T01:20:52.805Z,-2.46
2023-01-30T01:23:20.161Z,-2.43
2023-01-30T01:25:47.273Z,-2.42
2023-01-30T01:28:14.424Z,-2.44
2023-01-30T01:30:41.533Z,-2.43
2023-01-30T01:33:08.767Z,-2.40
2023-01-30T01:35:40.734Z,-2.44
2023-01-30T01:38:08.029Z,-2.43
2023-01-30T01:40:53.641Z,-2.44
2023-01-30T01:43:24.105Z,-2.42
2023-01-30T01:45:55.189Z,-2.45
2023-01-30T01:48:27.095Z,-2.38
2023-01-30T01:50:58.446Z,-2.34
2023-01-30T01:53:30.001Z,-2.30
2023-01-30T01:55:59.428Z,-2.23
2023-01-30T01:58:31.253Z,-2.23
2023-01-30T02:00:59.530Z,-2.27
2023-01-30T02:03:29.398Z,-2.26
2023-01-30T02:06:00.050Z,-2.22
2023-01-30T02:08:37.285Z,-2.17
2023-01-30T02:11:28.771Z,-2.12
2023-01-30T02:13:57.319Z,-2.10
2023-01-30T02:16:24.371Z,-2.06
2023-01-30T02:18:52.032Z,-2.01
2023-01-30T02:21:42.776Z,-1.99
2023-01-30T02:24:42.723Z,-1.97
2023-01-30T02:27:47.742Z,-1.92
2023-01-30T02:30:48.928Z,-1.87
2023-01-30T02:33:33.123Z,-1.84
2023-01-30T02:36:26.071Z,-1.77
2023-01-30T02:39:26.644Z,-1.73
2023-01-30T02:42:23.757Z,-1.66
2023-01-30T02:44:59.379Z,-1.62
2023-01-30T02:47:36.526Z,-1.58
2023-01-30T02:50:17.475Z,-1.56
2023-01-30T02:52:44.586Z,-1.52
2023-01-30T02:55:26.800Z,-1.49
2023-01-30T02:57:54.171Z,-1.42
2023-01-30T03:00:39.836Z,-1.37
2023-01-30T03:03:26.363Z,-1.32
2023-01-30T03:06:25.281Z,-1.31
2023-01-30T03:09:14.566Z,-1.30
2023-01-30T03:11:49.502Z,-1.31
2023-01-30T03:14:26.275Z,-1.30
2023-01-30T03:16:55.177Z,-1.27
2023-01-30T03:19:22.866Z,-1.30
2023-01-30T03:21:49.975Z,-1.27
2023-01-30T03:24:17.450Z,-1.28
2023-01-30T03:26:49.117Z,-1.27
2023-01-30T03:29:16.267Z,-1.26
2023-01-30T03:31:43.389Z,-1.25
2023-01-30T03:34:10.513Z,-1.21
2023-01-30T03:36:37.713Z,-1.19
2023-01-30T03:39:04.959Z,-1.11
2023-01-30T03:41:32.045Z,-1.09
2023-01-30T03:43:59.083Z,-1.13
2023-01-30T03:46:26.157Z,-1.14
2023-01-30T03:48:53.298Z,-1.13
2023-01-30T03:51:20.429Z,-1.13
2023-01-30T03:53:47.511Z,-1.11
2023-01-30T03:56:14.614Z,-1.10
2023-01-30T03:58:41.780Z,-1.05
2023-01-30T04:01:08.913Z,-1.04
2023-01-30T04:03:36.022Z,-1.01
2023-01-30T04:06:03.220Z,-0.95
2023-01-30T04:08:30.313Z,-0.91
2023-01-30T04:10:57.397Z,-0.88
2023-01-30T04:13:24.482Z,-0.87
2023-01-30T04:15:51.512Z,-0.83
2023-01-30T04:18:18.564Z,-0.81
2023-01-30T04:20:45.591Z,-0.81
2023-01-30T04:23:12.687Z,-0.81
2023-01-30T04:25:39.760Z,-0.78
2023-01-30T04:28:06.816Z,-0.76
2023-01-30T04:30:34.026Z,-0.73
2023-01-30T04:33:01.130Z,-0.71
2023-01-30T04:35:28.163Z,-0.64
2023-01-30T04:37:55.182Z,-0.63
2023-01-30T04:40:22.242Z,-0.62
2023-01-30T04:42:49.289Z,-0.66
2023-01-30T04:45:16.691Z,-0.70
2023-01-30T04:47:43.952Z,-0.67
2023-01-30T04:50:11.138Z,-0.65
2023-01-30T04:52:39.861Z,-0.63
2023-01-30T04:55:07.289Z,-0.63
2023-01-30T04:57:34.314Z,-0.56
2023-01-30T05:00:01.503Z,-0.58
2023-01-30T05:02:28.566Z,-0.53
2023-01-30T05:04:55.672Z,-0.51
2023-01-30T05:07:22.894Z,-0.49
2023-01-30T05:09:50.033Z,-0.47
2023-01-30T05:12:17.112Z,-0.49
2023-01-30T05:14:44.162Z,-0.47
2023-01-30T05:17:11.418Z,-0.46
2023-01-30T05:19:38.487Z,-0.44
2023-01-30T05:22:05.541Z,-0.39
2023-01-30T05:24:32.611Z,-0.40
2023-01-30T05:26:59.714Z,-0.36
2023-01-30T05:29:26.774Z,-0.33
2023-01-30T05:31:53.853Z,-0.30
2023-01-30T05:34:20.882Z,-0.32
2023-01-30T05:36:48.016Z,-0.35
2023-01-30T05:39:15.083Z,-0.33
2023-01-30T05:41:42.125Z,-0.38
2023-01-30T05:44:11.018Z,-0.32
2023-01-30T05:46:38.745Z,-0.34
2023-01-30T05:49:07.402Z,-0.29
2023-01-30T05:51:34.486Z,-0.26
2023-01-30T05:54:01.584Z,-0.24
2023-01-30T05:56:30.405Z,-0.23
2023-01-30T05:58:57.856Z,-0.19
2023-01-30T06:01:25.404Z,-0.16
2023-01-30T06:03:53.356Z,-0.14
2023-01-30T06:06:20.832Z,-0.10
2023-01-30T06:08:48.422Z,-0.13
2023-01-30T06:11:16.853Z,-0.14
2023-01-30T06:13:44.222Z,-0.13
2023-01-30T06:16:12.844Z,-0.11
2023-01-30T06:18:40.401Z,-0.12
2023-01-30T06:21:07.938Z,-0.16
2023-01-30T06:23:35.356Z,-0.14
2023-01-30T06:26:04.954Z,-0.12
2023-01-30T06:28:32.984Z,-0.09
2023-01-30T06:31:00.296Z,-0.08
2023-01-30T06:33:27.481Z,-0.03
2023-01-30T06:35:54.770Z,0.00
2023-01-30T06:38:21.835Z,0.00
2023-01-30T06:40:50.287Z,0.03
2023-01-30T06:43:17.760Z,0.04
2023-01-30T06:45:44.977Z,0.09
2023-01-30T06:48:12.089Z,0.12
2023-01-30T06:50:39.358Z,0.16
2023-01-30T06:53:07.531Z,0.17
2023-01-30T06:55:35.998Z,0.17
2023-01-30T06:58:05.591Z,0.21
2023-01-30T07:00:33.589Z,0.23
2023-01-30T07:03:00.714Z,0.18
2023-01-30T07:05:28.978Z,0.26
2023-01-30T07:07:56.279Z,0.28
2023-01-30T07:10:23.684Z,0.30
2023-01-30T07:12:50.802Z,0.34
2023-01-30T07:15:18.230Z,0.35
2023-01-30T07:17:45.427Z,0.40
2023-01-30T07:20:12.756Z,0.41
2023-01-30T07:22:39.867Z,0.45
2023-01-30T07:25:07.416Z,0.45
2023-01-30T07:27:34.567Z,0.51
2023-01-30T07:30:02.065Z,0.47
2023-01-30T07:32:29.093Z,0.47
2023-01-30T07:34:56.112Z,0.47
2023-01-30T07:37:23.206Z,0.48
2023-01-30T07:39:50.244Z,0.50
2023-01-30T07:42:17.365Z,0.52
2023-01-30T07:44:44.396Z,0.56
2023-01-30T07:47:11.455Z,0.59
2023-01-30T07:49:38.531Z,0.60
2023-01-30T07:52:05.707Z,0.61
2023-01-30T07:54:32.741Z,0.64
2023-01-30T07:57:00.099Z,0.66
2023-01-30T07:59:27.583Z,0.68
2023-01-30T08:01:54.853Z,0.67
2023-01-30T08:04:21.950Z,0.60
2023-01-30T08:06:49.104Z,0.58
2023-01-30T08:09:16.156Z,0.50
2023-01-30T08:11:43.259Z,0.46
2023-01-30T08:14:11.069Z,0.40
2023-01-30T08:16:39.049Z,0.33
2023-01-30T08:19:06.336Z,0.25
2023-01-30T08:21:33.392Z,0.22
2023-01-30T08:24:01.492Z,0.23
2023-01-30T08:26:28.692Z,0.28
2023-01-30T08:28:56.044Z,0.37
2023-01-30T08:31:23.137Z,0.40
2023-01-30T08:33:50.256Z,0.41
2023-01-30T08:36:17.350Z,0.33
2023-01-30T08:38:44.699Z,0.25
2023-01-30T08:41:12.427Z,0.22
2023-01-30T08:43:39.527Z,0.23
2023-01-30T08:46:06.576Z,0.26
2023-01-30T08:48:47.329Z,0.35
2023-01-30T08:51:15.891Z,0.43
2023-01-30T08:53:42.955Z,0.52
2023-01-30T08:56:10.090Z,0.61
2023-01-30T08:58:37.319Z,0.64
2023-01-30T09:01:07.551Z,0.67
2023-01-30T09:03:35.456Z,0.71
2023-01-30T09:06:03.935Z,0.79
2023-01-30T09:08:31.029Z,0.82
2023-01-30T09:10:59.800Z,0.86
2023-01-30T09:13:27.091Z,0.87
2023-01-30T09:15:54.448Z,0.92
2023-01-30T09:18:21.546Z,0.97
2023-01-30T09:20:48.792Z,0.99
2023-01-30T09:23:16.062Z,1.04
2023-01-30T09:25:46.760Z,1.09
2023-01-30T09:28:14.697Z,1.10
2023-01-30T09:30:42.038Z,1.07
2023-01-30T09:33:09.122Z,1.08
2023-01-30T09:35:36.155Z,1.12
2023-01-30T09:38:04.714Z,1.19
2023-01-30T09:40:32.556Z,1.21
2023-01-30T09:43:31.434Z,1.23
2023-01-30T09:46:04.784Z,1.26
2023-01-30T09:48:48.175Z,1.30
2023-01-30T09:51:33.584Z,1.36
2023-01-30T09:54:21.971Z,1.41
2023-01-30T09:56:56.941Z,1.48
2023-01-30T09:59:30.557Z,1.51
2023-01-30T10:02:13.059Z,1.52
2023-01-30T10:04:59.235Z,1.45
2023-01-30T10:08:16.106Z,1.36
2023-01-30T10:10:55.037Z,1.38
2023-01-30T10:13:39.826Z,1.30
2023-01-30T10:16:27.341Z,1.23
2023-01-30T10:19:16.074Z,1.13
2023-01-30T10:22:23.771Z,1.12
2023-01-30T10:25:13.198Z,1.06
2023-01-30T10:27:49.014Z,0.90
2023-01-30T10:30:17.237Z,0.87
2023-01-30T10:32:58.677Z,0.75
2023-01-30T10:35:31.235Z,0.71
2023-01-30T10:38:05.068Z,0.67
2023-01-30T10:40:42.639Z,0.67
2023-01-30T10:43:25.955Z,0.71
2023-01-30T10:46:18.613Z,0.73
2023-01-30T10:48:54.576Z,0.76
2023-01-30T10:51:30.619Z,0.80
2023-01-30T10:54:14.008Z,0.86
2023-01-30T10:57:03.223Z,0.91
2023-01-30T10:59:50.357Z,0.94
2023-01-30T11:02:26.245Z,0.96
2023-01-30T11:05:02.839Z,0.94
2023-01-30T11:07:32.041Z,0.91
2023-01-30T11:09:59.793Z,0.91
2023-01-30T11:12:26.991Z,0.88
2023-01-30T11:15:04.003Z,0.84
2023-01-30T11:17:35.411Z,0.81
2023-01-30T11:20:25.931Z,0.77
2023-01-30T11:23:05.303Z,0.76
2023-01-30T11:25:32.538Z,0.73
2023-01-30T11:28:05.409Z,0.69
2023-01-30T11:30:36.723Z,0.65
2023-01-30T11:33:12.815Z,0.64
2023-01-30T11:35:44.348Z,0.62
2023-01-30T11:38:32.707Z,0.62
2023-01-30T11:41:02.653Z,0.63
2023-01-30T11:43:29.755Z,0.60
2023-01-30T11:45:57.937Z,0.55
2023-01-30T11:48:33.467Z,0.54
2023-01-30T11:51:18.041Z,0.53
2023-01-30T11:53:47.516Z,0.52
2023-01-30T11:56:42.667Z,0.52
2023-01-30T11:59:28.408Z,0.54
2023-01-30T12:02:23.628Z,0.56
2023-01-30T12:04:54.491Z,0.59
2023-01-30T12:07:29.626Z,0.64
2023-01-30T12:09:58.325Z,0.72
2023-01-30T12:12:44.190Z,0.80
2023-01-30T12:15:27.003Z,0.89
2023-01-30T12:18:12.871Z,0.96
2023-01-30T12:20:59.584Z,1.00
2023-01-30T12:23:51.284Z,1.08
2023-01-30T12:26:21.096Z,1.13
2023-01-30T12:28:53.974Z,1.22
2023-01-30T12:31:43.166Z,1.30
2023-01-30T12:34:10.566Z,1.35
2023-01-30T12:37:00.285Z,1.38
2023-01-30T12:39:48.165Z,1.38
2023-01-30T12:42:28.327Z,1.37
2023-01-30T12:45:06.201Z,1.37
2023-01-30T12:47:55.923Z,1.36
2023-01-30T12:50:33.472Z,1.31
2023-01-30T12:53:36.605Z,1.33
2023-01-30T12:56:34.321Z,1.33
2023-01-30T12:59:20.656Z,1.34
2023-01-30T13:01:56.976Z,1.35
2023-01-30T13:04:56.364Z,1.42
2023-01-30T13:07:54.425Z,1.46
2023-01-30T13:10:50.588Z,1.51
2023-01-30T13:13:19.536Z,1.53
2023-01-30T13:16:04.542Z,1.56
2023-01-30T13:18:52.700Z,1.56
2023-01-30T13:21:30.124Z,1.55
2023-01-30T13:24:03.540Z,1.55
2023-01-30T13:26:35.289Z,1.54
2023-01-30T13:29:30.049Z,1.58
2023-01-30T13:32:01.240Z,1.61
2023-01-30T13:34:33.696Z,1.61
2023-01-30T13:37:15.020Z,1.57
2023-01-30T13:39:51.216Z,1.55
2023-01-30T13:42:41.178Z,1.55
2023-01-30T13:45:21.905Z,1.56
2023-01-30T13:48:06.698Z,1.56
2023-01-30T13:50:50.707Z,1.54
2023-01-30T13:53:29.730Z,1.57
2023-01-30T13:56:27.049Z,1.59
2023-01-30T13:59:21.933Z,1.61
2023-01-30T14:02:04.676Z,1.64
2023-01-30T14:04:41.022Z,1.62
2023-01-30T14:07:32.308Z,1.64
2023-01-30T14:10:02.063Z,1.64
2023-01-30T14:12:34.662Z,1.65
2023-01-30T14:15:13.743Z,1.66
2023-01-30T14:18:05.411Z,1.69
2023-01-30T14:20:35.194Z,1.74
2023-01-30T14:23:20.727Z,1.77
2023-01-30T14:25:53.000Z,1.77
2023-01-30T14:28:19.914Z,1.79
2023-01-30T14:30:49.320Z,1.80
2023-01-30T14:33:19.273Z,1.81
2023-01-30T14:36:02.012Z,1.82
2023-01-30T14:38:36.218Z,1.82
2023-01-30T14:41:03.252Z,1.82
2023-01-30T14:43:42.539Z,1.85
2023-01-30T14:46:32.655Z,1.83
2023-01-30T14:49:26.372Z,1.82
2023-01-30T14:51:56.202Z,1.82
2023-01-30T14:54:41.049Z,1.81
2023-01-30T14:57:35.210Z,1.78
2023-01-30T15:00:18.356Z,1.79
2023-01-30T15:02:55.337Z,1.78
2023-01-30T15:05:28.827Z,1.78
2023-01-30T15:08:23.884Z,1.81
2023-01-30T15:11:13.362Z,1.81
2023-01-30T15:14:21.825Z,1.82
2023-01-30T15:17:19.566Z,1.88
2023-01-30T15:20:13.366Z,1.90
2023-01-30T15:23:04.091Z,1.93
2023-01-30T15:25:52.142Z,1.95
2023-01-30T15:28:31.028Z,1.98
2023-01-30T15:31:09.481Z,1.99
2023-01-30T15:33:50.286Z,2.03
2023-01-30T15:36:32.328Z,2.06
2023-01-30T15:39:03.809Z,2.11
2023-01-30T15:41:33.097Z,2.12
2023-01-30T15:44:14.273Z,2.14
2023-01-30T15:46:50.296Z,2.16
2023-01-30T15:49:36.314Z,2.16
2023-01-30T15:52:04.457Z,2.18
2023-01-30T15:54:31.837Z,2.16
2023-01-30T15:57:00.165Z,2.22
2023-01-30T15:59:32.748Z,2.22
2023-01-30T16:02:02.304Z,2.24
2023-01-30T16:04:29.988Z,2.24
2023-01-30T16:06:57.950Z,2.25
2023-01-30T16:09:26.027Z,2.26
2023-01-30T16:11:53.122Z,2.28
2023-01-30T16:14:22.008Z,2.29
2023-01-30T16:16:59.029Z,2.31
2023-01-30T16:19:29.610Z,2.32
2023-01-30T16:22:05.457Z,2.32
2023-01-30T16:24:34.421Z,2.33
2023-01-30T16:27:05.347Z,2.34
2023-01-30T16:29:35.379Z,2.34
2023-01-30T16:32:12.262Z,2.34
2023-01-30T16:34:39.734Z,2.33
2023-01-30T16:37:24.079Z,2.36
2023-01-30T16:40:08.848Z,2.35
2023-01-30T16:42:35.924Z,2.37
2023-01-30T16:45:19.696Z,2.36
2023-01-30T16:47:47.454Z,2.35
2023-01-30T16:50:22.650Z,2.35
2023-01-30T16:52:52.022Z,2.36
2023-01-30T16:55:24.065Z,2.39
2023-01-30T16:57:56.401Z,2.37
2023-01-30T17:00:24.567Z,2.37
2023-01-30T17:02:56.031Z,2.37
2023-01-30T17:05:26.388Z,2.36
2023-01-30T17:07:55.631Z,2.41
2023-01-30T17:10:28.659Z,2.40
2023-01-30T17:12:56.103Z,2.41
2023-01-30T17:15:29.118Z,2.48
2023-01-30T17:17:56.382Z,2.47
2023-01-30T17:20:23.862Z,2.47
2023-01-30T17:22:52.930Z,2.48
2023-01-30T17:25:30.504Z,2.47
2023-01-30T17:27:59.034Z,2.45
2023-01-30T17:30:26.145Z,2.45
2023-01-30T17:32:53.213Z,2.45
2023-01-30T17:35:20.499Z,2.46
2023-01-30T17:37:59.613Z,2.43
2023-01-30T17:40:36.573Z,2.43
2023-01-30T17:43:04.272Z,2.43
2023-01-30T17:45:31.438Z,2.43
2023-01-30T17:47:58.534Z,2.42
2023-01-30T17:50:25.792Z,2.43
2023-01-30T17:52:52.816Z,2.41
2023-01-30T17:55:21.443Z,2.39
2023-01-30T17:57:48.946Z,2.37
2023-01-30T18:00:18.894Z,2.37
2023-01-30T18:02:46.357Z,2.39
2023-01-30T18:05:13.719Z,2.39
2023-01-30T18:07:41.120Z,2.40
2023-01-30T18:10:13.543Z,2.42
2023-01-30T18:12:40.572Z,2.40
2023-01-30T18:15:08.241Z,2.41
2023-01-30T18:17:38.328Z,2.42
2023-01-30T18:20:05.683Z,2.43
2023-01-30T18:22:32.751Z,2.42
2023-01-30T18:24:59.818Z,2.41
2023-01-30T18:27:26.831Z,2.42
2023-01-30T18:29:53.941Z,2.42
2023-01-30T18:32:21.020Z,2.45
2023-01-30T18:34:48.131Z,2.45
2023-01-30T18:37:15.203Z,2.41
2023-01-30T18:39:43.459Z,2.41
2023-01-30T18:42:10.800Z,2.40
2023-01-30T18:44:37.994Z,2.40
2023-01-30T18:47:05.258Z,2.38
2023-01-30T18:49:32.327Z,2.39
2023-01-30T18:51:59.503Z,2.37
2023-01-30T18:54:26.539Z,2.35
2023-01-30T18:56:53.598Z,2.39
2023-01-30T18:59:20.758Z,2.39
2023-01-30T19:01:48.138Z,2.41
2023-01-30T19:04:15.374Z,2.44
2023-01-30T19:06:43.565Z,2.47
2023-01-30T19:09:15.638Z,2.46
2023-01-30T19:12:00.953Z,2.45
2023-01-30T19:14:28.153Z,2.44
2023-01-30T19:16:55.255Z,2.43
2023-01-30T19:19:22.372Z,2.42
2023-01-30T19:21:50.999Z,2.43
2023-01-30T19:24:18.056Z,2.42
2023-01-30T19:26:45.228Z,2.41
2023-01-30T19:29:12.393Z,2.42
2023-01-30T19:31:39.567Z,2.41
2023-01-30T19:34:06.741Z,2.41
2023-01-30T19:36:36.035Z,2.41
2023-01-30T19:39:05.866Z,2.36
2023-01-30T19:41:34.969Z,2.36
2023-01-30T19:44:04.140Z,2.35
2023-01-30T19:46:31.271Z,2.37
2023-01-30T19:48:58.893Z,2.35
2023-01-30T19:51:28.484Z,2.37
2023-01-30T19:54:00.882Z,2.36
2023-01-30T19:56:28.932Z,2.33
2023-01-30T19:58:57.331Z,2.36
2023-01-30T20:01:27.262Z,2.35
2023-01-30T20:03:54.440Z,2.36
2023-01-30T20:06:24.499Z,2.35
2023-01-30T20:08:58.506Z,2.33
2023-01-30T20:11:25.856Z,2.27
2023-01-30T20:13:53.468Z,2.27
2023-01-30T20:16:25.119Z,2.24
2023-01-30T20:18:59.911Z,2.23
2023-01-30T20:21:28.433Z,2.15
2023-01-30T20:23:55.912Z,2.06
2023-01-30T20:26:25.495Z,2.02
2023-01-30T20:28:54.453Z,2.00
2023-01-30T20:31:24.359Z,1.98
2023-01-30T20:33:51.686Z,1.97
2023-01-30T20:36:19.586Z,1.98
2023-01-30T20:38:48.090Z,1.99
2023-01-30T20:41:17.730Z,1.98
2023-01-30T20:43:46.968Z,2.00
2023-01-30T20:46:19.927Z,2.02
2023-01-30T20:48:47.395Z,2.03
2023-01-30T20:51:16.719Z,2.06
2023-01-30T20:53:51.374Z,2.09
2023-01-30T20:56:19.548Z,2.10
2023-01-30T20:58:46.953Z,2.11
2023-01-30T21:01:18.105Z,2.13
2023-01-30T21:03:48.000Z,2.15
2023-01-30T21:06:41.363Z,2.15
2023-01-30T21:09:02.638Z,2.13
2023-01-30T21:11:29.778Z,2.14
2023-01-30T21:13:56.920Z,2.16
2023-01-30T21:16:26.577Z,2.17
2023-01-30T21:19:01.323Z,2.20
2023-01-30T21:21:32.773Z,2.19
2023-01-30T21:24:02.369Z,2.17
2023-01-30T21:26:31.321Z,2.21
2023-01-30T21:29:00.602Z,2.21
2023-01-30T21:31:29.589Z,2.22
2023-01-30T21:33:58.302Z,2.21
2023-01-30T21:36:26.147Z,2.23
2023-01-30T21:39:11.869Z,2.22
2023-01-30T21:41:58.753Z,2.23
2023-01-30T21:44:28.859Z,2.25
2023-01-30T21:46:56.889Z,2.26
2023-01-30T21:49:28.307Z,2.22
2023-01-30T21:51:55.694Z,2.18
2023-01-30T21:54:22.799Z,2.11
2023-01-30T21:56:50.075Z,2.07
2023-01-30T21:59:17.480Z,1.99
2023-01-30T22:01:44.634Z,1.95
2023-01-30T22:04:13.930Z,1.92
2023-01-30T22:06:41.812Z,1.92
2023-01-30T22:09:11.338Z,1.93
2023-01-30T22:11:38.818Z,1.93
2023-01-30T22:14:05.957Z,1.91
2023-01-30T22:16:33.723Z,1.87
2023-01-30T22:19:02.963Z,1.87
2023-01-30T22:21:33.462Z,1.88
2023-01-30T22:24:01.837Z,1.87
2023-01-30T22:26:29.005Z,1.81
2023-01-30T22:29:00.212Z,1.72
2023-01-30T22:31:30.845Z,1.64
2023-01-30T22:33:58.092Z,1.56
2023-01-30T22:36:30.597Z,1.48
2023-01-30T22:38:57.656Z,1.42
2023-01-30T22:41:25.939Z,1.38
2023-01-30T22:43:57.459Z,1.37
2023-01-30T22:46:31.323Z,1.40
2023-01-30T22:48:59.991Z,1.38
2023-01-30T22:51:29.459Z,1.37
2023-01-30T22:54:01.736Z,1.39
2023-01-30T22:56:38.684Z,1.42
2023-01-30T22:59:05.952Z,1.43
2023-01-30T23:01:35.087Z,1.46
2023-01-30T23:04:05.525Z,1.46
2023-01-30T23:06:32.638Z,1.49
2023-01-30T23:09:00.797Z,1.50
2023-01-30T23:11:30.289Z,1.49
2023-01-30T23:14:00.049Z,1.50
2023-01-30T23:16:27.934Z,1.52
2023-01-30T23:18:55.085Z,1.50
2023-01-30T23:21:26.010Z,1.48
2023-01-30T23:23:54.726Z,1.47
2023-01-30T23:26:23.762Z,1.50
2023-01-30T23:28:50.974Z,1.50
2023-01-30T23:31:21.046Z,1.50
2023-01-30T23:33:48.209Z,1.53
2023-01-30T23:36:15.345Z,1.55
2023-01-30T23:38:42.392Z,1.54
2023-01-30T23:41:15.857Z,1.55
2023-01-30T23:43:44.297Z,1.53
2023-01-30T23:46:15.941Z,1.53
2023-01-30T23:48:44.560Z,1.51
2023-01-30T23:51:12.215Z,1.51
2023-01-30T23:53:39.925Z,1.50
2023-01-30T23:56:07.613Z,1.49
2023-01-30T23:58:35.183Z,1.47
